Time;durP1;ratioP1;P1;durP2;ratioP2;P2;SDS_P1;SDS_P2;PMS_P1;PMS_P2;Temp;Humidity;BMP_temperature;BMP_pressure;BME280_temperature;BME280_humidity;BME280_pressure;Samples;Min_cycle;Max_cycle;Signal;HPM_P1;HPM_P2
2023/03/31 00:00:26;;;;;;;18.58;8.07;;;;;;;9.68;51.18;95197.38;5099869;28;20394;-77
2023/03/31 00:02:53;;;;;;;19.73;8.07;;;;;;;9.64;51.52;95202.38;5100826;28;20420;-76
2023/03/31 00:05:20;;;;;;;17.33;8.30;;;;;;;9.45;51.69;95174.88;5078224;28;20032;-76
2023/03/31 00:07:47;;;;;;;27.33;8.57;;;;;;;9.31;51.17;95150.00;5100245;28;20035;-77
2023/03/31 00:10:14;;;;;;;16.90;8.07;;;;;;;9.33;50.58;95147.88;5078509;28;20482;-77
2023/03/31 00:12:39;;;;;;;16.83;7.63;;;;;;;9.91;51.34;95220.66;5102621;28;20043;-77
2023/03/31 00:15:05;;;;;;;25.23;7.07;;;;;;;9.88;51.55;95217.72;5107016;28;20040;-77
2023/03/31 00:17:32;;;;;;;16.83;7.32;;;;;;;9.40;50.87;95137.03;5088995;28;20039;-77
2023/03/31 00:19:59;;;;;;;23.55;8.23;;;;;;;9.78;51.69;95199.19;5091089;28;20109;-77
2023/03/31 00:22:26;;;;;;;27.08;8.18;;;;;;;9.62;51.02;95174.59;5094228;28;20032;-77
2023/03/31 00:24:52;;;;;;;18.85;7.50;;;;;;;9.66;51.17;95188.91;5111773;28;20040;-77
2023/03/31 00:27:18;;;;;;;24.08;7.28;;;;;;;9.49;51.70;95168.00;5096762;28;20101;-77
2023/03/31 00:29:44;;;;;;;24.67;7.70;;;;;;;9.49;51.91;95169.84;5097019;28;20502;-77
2023/03/31 00:32:10;;;;;;;26.90;7.95;;;;;;;9.83;51.44;95220.38;5095911;28;20103;-78
2023/03/31 00:34:37;;;;;;;20.83;7.63;;;;;;;9.83;51.66;95229.13;5092734;28;20036;-76
2023/03/31 00:37:03;;;;;;;26.98;8.48;;;;;;;9.42;51.92;95148.16;5080453;28;20490;-77
2023/03/31 00:39:34;;;;;;;21.98;7.93;;;;;;;9.20;52.76;95133.34;5100544;28;20042;-76
2023/03/31 00:42:02;;;;;;;15.77;7.15;;;;;;;9.59;52.73;95186.53;5102064;28;20098;-76
2023/03/31 00:44:29;;;;;;;26.70;7.90;;;;;;;9.38;51.84;95139.16;5104458;28;20109;-77
2023/03/31 00:47:06;;;;;;;15.25;7.35;;;;;;;9.64;52.80;95181.22;5106281;28;20032;-76
2023/03/31 00:49:46;;;;;;;15.07;8.05;;;;;;;9.77;52.07;95203.69;5106859;28;20031;-77
2023/03/31 00:52:21;;;;;;;18.17;7.25;;;;;;;9.83;52.53;95205.28;5089454;28;20081;-76
2023/03/31 00:54:53;;;;;;;19.75;7.43;;;;;;;9.83;52.40;95191.25;5109354;28;20115;-76
2023/03/31 00:57:20;;;;;;;16.20;7.30;;;;;;;9.78;52.68;95194.69;5093923;28;20792;-76
2023/03/31 00:59:50;;;;;;;21.23;7.68;;;;;;;9.58;52.78;95149.72;5091993;28;20399;-76
2023/03/31 01:02:19;;;;;;;19.30;8.30;;;;;;;9.62;53.38;95148.91;5074129;28;20555;-76
2023/03/31 01:04:49;;;;;;;21.58;8.43;;;;;;;9.29;52.22;95123.81;5075927;28;20413;-76
2023/03/31 01:07:28;;;;;;;19.70;7.63;;;;;;;9.25;54.83;95143.13;5095842;28;20119;-76
2023/03/31 01:09:58;;;;;;;15.80;7.30;;;;;;;9.72;53.38;95174.56;5087692;28;20055;-76
2023/03/31 01:12:26;;;;;;;18.35;7.43;;;;;;;9.84;53.78;95183.00;5092472;28;20028;-76
2023/03/31 01:14:52;;;;;;;15.82;7.90;;;;;;;9.91;54.02;95180.13;5096978;28;20032;-76
2023/03/31 01:17:20;;;;;;;26.52;7.85;;;;;;;9.94;53.17;95172.41;5075176;28;20107;-76
2023/03/31 01:19:57;;;;;;;17.90;7.35;;;;;;;9.99;53.65;95182.22;5094383;28;20497;-76
2023/03/31 01:22:44;;;;;;;16.83;7.35;;;;;;;9.99;53.02;95179.56;5091640;28;20087;-76
2023/03/31 01:25:10;;;;;;;23.88;8.77;;;;;;;9.97;53.23;95179.03;5097943;28;20093;-76
2023/03/31 01:27:52;;;;;;;20.10;8.05;;;;;;;10.04;53.52;95184.84;5098622;28;20036;-76
2023/03/31 01:30:55;;;;;;;24.08;9.25;;;;;;;10.13;52.83;95193.84;5094756;28;20528;-76
2023/03/31 01:33:55;;;;;;;25.30;8.68;;;;;;;10.12;54.25;95186.16;5116299;28;20038;-77
2023/03/31 01:36:41;;;;;;;20.17;7.95;;;;;;;10.16;53.33;95187.19;5080917;28;20044;-77
2023/03/31 01:39:38;;;;;;;23.45;8.68;;;;;;;10.12;54.08;95204.69;5086773;28;20405;-77
2023/03/31 01:42:42;;;;;;;35.85;10.50;;;;;;;10.18;53.44;95193.03;5087522;28;20051;-76
2023/03/31 01:45:07;;;;;;;24.85;9.30;;;;;;;10.24;53.05;95203.34;5114233;28;20031;-76
2023/03/31 01:47:40;;;;;;;24.35;9.35;;;;;;;9.89;53.10;95145.16;5098856;28;20078;-77
2023/03/31 01:50:55;;;;;;;29.08;9.02;;;;;;;10.34;53.14;95207.84;5092632;28;20038;-78
2023/03/31 01:54:05;;;;;;;30.48;10.13;;;;;;;10.37;52.80;95212.59;5076119;28;20051;-79
2023/03/31 01:56:38;;;;;;;33.47;10.40;;;;;;;9.82;53.54;95153.38;4988298;28;20517;-78
2023/03/31 01:59:12;;;;;;;32.28;8.90;;;;;;;10.30;53.36;95212.88;5089657;28;20090;-78
2023/03/31 02:02:20;;;;;;;28.40;9.60;;;;;;;10.35;53.11;95215.53;5102023;28;20051;-78
2023/03/31 02:04:52;;;;;;;20.85;9.10;;;;;;;10.28;53.65;95219.53;5004394;28;20116;-78
2023/03/31 02:07:23;;;;;;;27.40;11.20;;;;;;;10.11;53.67;95179.25;5067572;28;20040;-78
2023/03/31 02:09:55;;;;;;;34.15;12.48;;;;;;;10.29;53.79;95221.13;5075940;28;20509;-77
2023/03/31 02:12:24;;;;;;;40.67;15.35;;;;;;;10.02;53.04;95166.56;5092407;28;20048;-78
2023/03/31 02:14:53;;;;;;;34.00;14.27;;;;;;;10.35;53.41;95210.22;5114299;28;20028;-78
2023/03/31 02:17:29;;;;;;;35.90;15.80;;;;;;;10.05;52.93;95160.72;5095229;28;20036;-77
2023/03/31 02:19:58;;;;;;;38.90;17.20;;;;;;;10.31;52.97;95232.22;5097315;28;20048;-78
2023/03/31 02:22:26;;;;;;;36.10;16.10;;;;;;;10.29;54.48;95235.16;5092990;28;20028;-79
2023/03/31 02:24:53;;;;;;;30.58;13.13;;;;;;;9.70;56.28;95219.06;5100064;28;20051;-78
2023/03/31 02:27:26;;;;;;;38.38;15.90;;;;;;;10.00;57.25;95239.41;5075110;28;20036;-78
2023/03/31 02:29:53;;;;;;;35.15;13.77;;;;;;;10.07;57.55;95253.19;5103526;28;20027;-78
2023/03/31 02:32:31;;;;;;;32.20;14.45;;;;;;;9.98;59.75;95250.31;5105932;28;20042;-78
2023/03/31 02:34:57;;;;;;;40.25;14.73;;;;;;;9.80;62.28;95234.16;5108897;28;20027;-78
2023/03/31 02:37:24;;;;;;;34.72;13.88;;;;;;;9.82;62.66;95232.84;5111433;28;20030;-78
2023/03/31 02:39:53;;;;;;;30.35;13.60;;;;;;;10.01;64.43;95268.28;5112654;28;20028;-78
2023/03/31 02:42:19;;;;;;;35.60;13.93;;;;;;;9.73;66.01;95233.63;5075994;28;20032;-79
2023/03/31 02:44:45;;;;;;;41.20;13.25;;;;;;;9.43;66.25;95214.06;5078327;28;20391;-78
2023/03/31 02:47:13;;;;;;;27.30;12.27;;;;;;;9.51;64.09;95269.13;5097951;28;20027;-78
2023/03/31 02:49:47;;;;;;;29.38;13.38;;;;;;;9.13;65.91;95214.03;5095096;28;20380;-79
2023/03/31 02:52:32;;;;;;;40.55;14.30;;;;;;;9.11;68.92;95208.22;5101050;28;20097;-78
2023/03/31 02:55:06;;;;;;;27.92;12.60;;;;;;;9.48;68.11;95242.38;5094874;28;20031;-79
2023/03/31 02:57:47;;;;;;;36.38;13.23;;;;;;;9.41;66.00;95245.28;5087167;28;20040;-79
2023/03/31 03:00:52;;;;;;;27.45;12.70;;;;;;;9.39;67.68;95238.66;5105186;28;20024;-78
2023/03/31 03:03:41;;;;;;;34.30;12.82;;;;;;;9.29;68.70;95226.22;5080289;28;20142;-79
2023/03/31 03:06:16;;;;;;;31.35;13.55;;;;;;;9.29;69.80;95220.94;5107998;28;20024;-79
2023/03/31 03:08:58;;;;;;;29.20;12.43;;;;;;;9.11;71.36;95200.28;5079893;28;20032;-78
2023/03/31 03:11:37;;;;;;;26.45;12.05;;;;;;;9.05;72.65;95193.41;5090527;28;20069;-79
2023/03/31 03:14:24;;;;;;;32.90;12.65;;;;;;;9.27;72.42;95218.56;5108175;28;20038;-78
2023/03/31 03:17:16;;;;;;;33.75;12.63;;;;;;;9.08;72.99;95169.06;5080908;28;20035;-78
2023/03/31 03:19:41;;;;;;;;;;;;;;;9.40;73.56;95201.34;5099480;28;20718;-78
2023/03/31 03:22:07;;;;;;;30.98;12.50;;;;;;;8.79;74.33;95137.81;5087631;28;19943;-78
2023/03/31 03:24:34;;;;;;;29.25;11.98;;;;;;;8.68;75.00;95109.78;5095707;28;20405;-79
2023/03/31 03:27:00;;;;;;;27.33;13.32;;;;;;;8.82;75.21;95131.22;5097976;28;20024;-78
2023/03/31 03:29:26;;;;;;;32.22;13.45;;;;;;;8.88;75.22;95143.38;5080652;28;20102;-78
2023/03/31 03:31:52;;;;;;;25.58;12.52;;;;;;;9.01;75.27;95140.22;5076079;28;20623;-79
2023/03/31 03:34:18;;;;;;;28.13;12.93;;;;;;;9.11;75.59;95158.75;5101750;28;20514;-79
2023/03/31 03:36:45;;;;;;;28.92;13.23;;;;;;;9.46;75.70;95191.56;5103884;28;20034;-79
2023/03/31 03:39:12;;;;;;;27.45;13.70;;;;;;;9.36;76.23;95187.06;5074901;28;20023;-78
2023/03/31 03:41:37;;;;;;;33.30;12.57;;;;;;;9.47;75.37;95180.69;5107262;28;20059;-78
2023/03/31 03:44:03;;;;;;;28.58;13.88;;;;;;;9.52;76.64;95177.25;5109625;28;20031;-78
2023/03/31 03:46:29;;;;;;;23.88;11.45;;;;;;;9.34;76.29;95146.81;5111893;28;20133;-78
2023/03/31 03:48:54;;;;;;;32.38;12.88;;;;;;;9.11;76.50;95126.19;5090683;28;20177;-78
2023/03/31 03:51:21;;;;;;;25.17;9.25;;;;;;;9.55;75.66;95174.06;5075387;28;20028;-78
2023/03/31 03:53:46;;;;;;;18.20;9.02;;;;;;;9.15;74.98;95092.88;5095137;28;20032;-78
2023/03/31 03:56:12;;;;;;;16.30;9.27;;;;;;;9.21;74.59;95089.94;5097976;28;20146;-79
2023/03/31 03:58:37;;;;;;;34.25;10.77;;;;;;;9.52;73.48;95148.94;5099180;28;20553;-78
2023/03/31 04:01:03;;;;;;;22.60;8.88;;;;;;;8.91;73.05;95097.91;5100841;28;20035;-78
2023/03/31 04:03:28;;;;;;;19.13;8.23;;;;;;;9.57;72.81;95178.03;5100547;28;20028;-78
2023/03/31 04:05:54;;;;;;;19.38;7.72;;;;;;;8.95;72.46;95092.88;5103506;28;20039;-79
2023/03/31 04:08:19;;;;;;;16.45;7.95;;;;;;;9.40;73.43;95182.81;5105808;28;20482;-78
2023/03/31 04:10:47;;;;;;;15.40;7.75;;;;;;;9.36;73.01;95170.38;5088648;28;20020;-78
2023/03/31 04:13:16;;;;;;;17.23;8.23;;;;;;;8.84;72.54;95078.88;5071129;28;20399;-77
2023/03/31 04:15:42;;;;;;;17.65;8.25;;;;;;;9.53;73.72;95176.22;5064621;28;20024;-78
2023/03/31 04:18:17;;;;;;;19.60;8.95;;;;;;;9.48;74.46;95155.81;5083880;28;20572;-78
2023/03/31 04:20:44;;;;;;;17.05;8.80;;;;;;;9.57;73.91;95169.31;5081627;28;20344;-77
2023/03/31 04:23:09;;;;;;;19.65;9.13;;;;;;;9.80;73.11;95189.94;5087717;28;20039;-78
2023/03/31 04:25:37;;;;;;;20.70;6.53;;;;;;;9.78;73.31;95186.75;5062584;28;20032;-78
2023/03/31 04:28:05;;;;;;;24.15;9.43;;;;;;;9.22;71.75;95125.16;5094296;28;20359;-77
2023/03/31 04:30:32;;;;;;;19.17;8.75;;;;;;;9.79;71.57;95187.53;5060782;28;20506;-78
2023/03/31 04:33:03;;;;;;;18.95;7.93;;;;;;;9.42;71.62;95124.31;5067236;28;20446;-78
2023/03/31 04:35:47;;;;;;;15.60;7.03;;;;;;;9.29;72.32;95102.66;5063804;28;20964;-78
2023/03/31 04:38:12;;;;;;;16.05;6.18;;;;;;;9.74;71.32;95179.63;5088091;28;20032;-78
2023/03/31 04:40:40;;;;;;;13.35;6.65;;;;;;;9.59;69.73;95154.75;5064337;28;20028;-79
2023/03/31 04:43:05;;;;;;;17.48;5.82;;;;;;;9.50;68.53;95134.38;5090808;28;20869;-78
2023/03/31 04:45:31;;;;;;;14.80;6.82;;;;;;;9.17;70.42;95069.56;5074591;28;20023;-78
2023/03/31 04:47:56;;;;;;;16.92;7.28;;;;;;;9.38;69.57;95110.84;5078593;28;20226;-78
2023/03/31 04:50:21;;;;;;;18.90;8.60;;;;;;;9.32;71.12;95095.22;5072477;28;20114;-78
2023/03/31 04:52:47;;;;;;;19.35;8.55;;;;;;;9.27;71.30;95070.34;5091203;28;20024;-80
2023/03/31 04:55:13;;;;;;;18.98;8.07;;;;;;;9.92;72.74;95185.13;5081847;28;20028;-79
2023/03/31 04:57:38;;;;;;;22.27;9.55;;;;;;;9.96;73.19;95169.50;5093614;28;20035;-79
2023/03/31 05:00:06;;;;;;;31.38;9.88;;;;;;;9.54;72.76;95096.50;5075634;28;20204;-79
2023/03/31 05:02:32;;;;;;;17.40;8.93;;;;;;;9.76;73.29;95127.19;5068310;28;20458;-81
2023/03/31 05:04:58;;;;;;;22.02;9.18;;;;;;;9.38;72.75;95102.91;5090713;28;20074;-79
2023/03/31 05:07:23;;;;;;;20.02;8.38;;;;;;;9.48;72.43;95092.28;5088428;28;20084;-80
2023/03/31 05:09:49;;;;;;;17.63;9.10;;;;;;;10.13;71.92;95166.53;5088548;28;20028;-80
2023/03/31 05:12:14;;;;;;;20.98;8.05;;;;;;;9.87;71.45;95118.13;5080363;28;20036;-81
2023/03/31 05:14:42;;;;;;;19.95;8.15;;;;;;;9.69;71.66;95101.75;5077038;28;20082;-80
2023/03/31 05:17:08;;;;;;;18.63;8.35;;;;;;;10.06;72.28;95158.88;5087395;28;20032;-83
2023/03/31 05:19:33;;;;;;;18.38;8.60;;;;;;;9.80;72.25;95102.53;5088941;28;20441;-82
2023/03/31 05:22:00;;;;;;;18.58;8.32;;;;;;;10.01;70.77;95142.97;5060553;28;20122;-79
2023/03/31 05:24:27;;;;;;;21.42;8.50;;;;;;;9.88;70.67;95114.41;5041076;28;20047;-79
2023/03/31 05:26:53;;;;;;;18.80;9.20;;;;;;;9.63;71.53;95072.91;5041897;28;20135;-79
2023/03/31 05:29:19;;;;;;;25.60;11.40;;;;;;;10.26;70.99;95145.56;5067467;28;20162;-79
2023/03/31 05:31:45;;;;;;;22.10;10.82;;;;;;;9.88;71.17;95087.94;5070622;28;20040;-79
2023/03/31 05:34:10;;;;;;;22.42;10.18;;;;;;;10.22;70.05;95139.22;5055762;28;20436;-79
2023/03/31 05:36:36;;;;;;;22.10;10.80;;;;;;;10.32;68.99;95141.03;5064157;28;20033;-79
2023/03/31 05:39:02;;;;;;;23.45;12.10;;;;;;;10.26;68.23;95115.63;5062274;28;20040;-79
2023/03/31 05:41:28;;;;;;;31.52;13.98;;;;;;;10.43;69.67;95147.88;5076545;28;20625;-80
2023/03/31 05:43:53;;;;;;;21.77;10.02;;;;;;;10.45;70.55;95143.88;5071522;28;20032;-80
2023/03/31 05:46:19;;;;;;;16.48;8.60;;;;;;;10.31;68.26;95147.41;5070974;28;20032;-79
2023/03/31 05:48:44;;;;;;;25.95;10.15;;;;;;;10.09;67.67;95097.38;5073727;28;20036;-79
2023/03/31 05:51:10;;;;;;;25.15;11.10;;;;;;;9.98;69.40;95072.81;5074677;28;20071;-80
2023/03/31 05:53:35;;;;;;;25.45;12.45;;;;;;;10.50;69.85;95127.16;5079637;28;20111;-80
2023/03/31 05:56:05;;;;;;;49.47;13.27;;;;;;;10.34;69.09;95107.91;5073682;28;20024;-80
2023/03/31 05:58:35;;;;;;;52.90;11.65;;;;;;;10.33;67.97;95106.31;5063082;28;20029;-79
2023/03/31 06:01:12;;;;;;;25.67;10.13;;;;;;;10.78;68.20;95147.69;5065446;28;20035;-78
2023/03/31 06:03:40;;;;;;;17.67;8.90;;;;;;;10.59;67.93;95100.88;5058491;28;20573;-78
2023/03/31 06:06:07;;;;;;;21.65;9.88;;;;;;;10.33;67.27;95074.50;5031375;28;20040;-78
2023/03/31 06:08:34;;;;;;;26.98;9.68;;;;;;;11.05;67.22;95146.44;5042792;28;20424;-78
2023/03/31 06:11:03;;;;;;;22.33;8.10;;;;;;;11.05;67.80;95149.09;5055510;28;20016;-79
2023/03/31 06:13:29;;;;;;;24.83;7.63;;;;;;;11.17;67.19;95147.69;5062899;28;20059;-79
2023/03/31 06:15:56;;;;;;;15.82;8.05;;;;;;;10.98;66.35;95122.09;5059219;28;20033;-79
2023/03/31 06:18:22;;;;;;;22.67;8.45;;;;;;;11.30;66.91;95153.41;5063761;28;20044;-79
2023/03/31 06:20:47;;;;;;;20.40;8.77;;;;;;;11.10;65.09;95123.31;5075534;28;20043;-79
2023/03/31 06:23:13;;;;;;;19.77;7.25;;;;;;;11.16;66.22;95145.28;5075763;28;20585;-79
2023/03/31 06:25:38;;;;;;;18.17;9.63;;;;;;;11.23;66.08;95140.47;5093643;28;20541;-79
2023/03/31 06:28:06;;;;;;;24.17;8.68;;;;;;;11.02;65.92;95091.25;5073930;28;20032;-79
2023/03/31 06:30:31;;;;;;;19.80;8.60;;;;;;;11.30;66.21;95118.88;5094334;28;20031;-79
2023/03/31 06:32:56;;;;;;;17.08;6.53;;;;;;;11.46;65.13;95141.59;5095121;28;20383;-79
2023/03/31 06:35:22;;;;;;;25.50;9.02;;;;;;;11.41;66.34;95142.44;5075311;28;20126;-80
2023/03/31 06:37:49;;;;;;;21.65;8.65;;;;;;;11.14;65.56;95108.41;5090260;28;20028;-80
2023/03/31 06:40:14;;;;;;;16.00;7.97;;;;;;;10.82;64.99;95045.28;5097059;28;20039;-80
2023/03/31 06:42:40;;;;;;;17.15;7.72;;;;;;;10.93;64.13;95035.34;5090365;28;20057;-80
2023/03/31 06:45:07;;;;;;;16.80;7.40;;;;;;;11.04;64.46;95057.28;5091898;28;20521;-80
2023/03/31 06:47:32;;;;;;;29.02;7.80;;;;;;;11.25;63.48;95087.09;5083794;28;20035;-80
2023/03/31 06:49:58;;;;;;;17.60;8.02;;;;;;;11.37;64.53;95095.47;5079138;28;20027;-80
2023/03/31 06:52:26;;;;;;;19.75;8.45;;;;;;;11.38;64.37;95081.91;5078489;28;20039;-79
2023/03/31 06:54:51;;;;;;;17.50;8.07;;;;;;;11.49;63.37;95098.56;5079295;28;20263;-81
2023/03/31 06:57:19;;;;;;;29.40;8.98;;;;;;;12.02;63.75;95144.53;5065291;28;20316;-83
2023/03/31 06:59:45;;;;;;;22.17;8.02;;;;;;;11.98;63.35;95117.69;5071758;28;20035;-84
2023/03/31 07:02:10;;;;;;;23.38;9.00;;;;;;;12.05;64.37;95143.97;5081579;28;20031;-82
2023/03/31 07:04:36;;;;;;;21.25;8.63;;;;;;;11.44;61.58;95030.34;5059723;28;20032;-82
2023/03/31 07:07:01;;;;;;;22.92;9.88;;;;;;;12.09;62.96;95114.94;5079012;28;20037;-81
2023/03/31 07:09:26;;;;;;;20.45;8.18;;;;;;;11.87;63.82;95059.66;5077137;28;20035;-82
2023/03/31 07:11:52;;;;;;;22.63;8.65;;;;;;;12.25;62.45;95093.22;5083387;28;20023;-80
2023/03/31 07:14:17;;;;;;;24.55;8.43;;;;;;;11.84;61.57;95047.72;5083520;28;20422;-80
2023/03/31 07:16:43;;;;;;;21.33;8.15;;;;;;;11.58;61.11;95017.19;5063946;28;20503;-81
2023/03/31 07:19:09;;;;;;;24.92;7.82;;;;;;;11.81;60.83;95095.34;5083786;28;20077;-79
2023/03/31 07:21:36;;;;;;;18.30;7.20;;;;;;;11.63;60.77;95021.66;5067933;28;20177;-81
2023/03/31 07:24:01;;;;;;;19.85;7.28;;;;;;;11.97;62.35;95070.16;5083816;28;20040;-80
2023/03/31 07:26:27;;;;;;;21.75;7.05;;;;;;;11.89;60.01;95078.78;5084798;28;20110;-82
2023/03/31 07:28:55;;;;;;;22.80;8.15;;;;;;;11.72;61.63;95052.63;5087706;28;20032;-80
2023/03/31 07:31:22;;;;;;;24.60;7.07;;;;;;;11.44;59.27;94998.47;5050083;28;20040;-80
2023/03/31 07:33:47;;;;;;;14.05;4.25;;;;;;;11.72;55.30;95055.28;5068102;28;20310;-81
2023/03/31 07:36:13;;;;;;;16.88;5.00;;;;;;;11.98;54.31;95093.00;5078271;28;20457;-80
2023/03/31 07:38:48;;;;;;;17.80;6.90;;;;;;;12.11;55.10;95083.56;5058688;28;20276;-80
2023/03/31 07:41:17;;;;;;;11.00;5.78;;;;;;;11.79;53.65;95047.78;5061458;28;20500;-80
2023/03/31 07:43:43;;;;;;;13.40;5.00;;;;;;;11.69;53.34;95023.16;5079896;28;20166;-80
2023/03/31 07:46:24;;;;;;;10.10;5.22;;;;;;;12.07;54.00;95067.38;5077096;28;20039;-80
2023/03/31 07:48:50;;;;;;;16.45;5.85;;;;;;;12.14;54.41;95075.00;5065766;28;20038;-80
2023/03/31 07:51:18;;;;;;;10.43;5.22;;;;;;;11.91;53.59;95042.84;5082215;28;20032;-79
2023/03/31 07:53:44;;;;;;;13.48;6.15;;;;;;;11.65;54.52;94991.06;5057205;28;20039;-80
2023/03/31 07:56:11;;;;;;;17.27;6.30;;;;;;;12.23;54.13;95079.41;5047005;28;20043;-81
2023/03/31 07:58:36;;;;;;;16.05;5.47;;;;;;;11.72;52.93;94980.91;5064702;28;20051;-80
2023/03/31 08:01:02;;;;;;;9.88;5.00;;;;;;;11.83;51.56;95008.94;5052475;28;20160;-78
2023/03/31 08:03:28;;;;;;;22.73;5.15;;;;;;;11.71;51.95;94958.06;5060609;28;20133;-79
2023/03/31 08:05:54;;;;;;;9.90;4.53;;;;;;;12.06;52.94;95020.59;5071317;28;20031;-78
2023/03/31 08:08:21;;;;;;;12.82;4.43;;;;;;;12.54;52.39;95068.34;5078978;28;20025;-77
2023/03/31 08:10:47;;;;;;;16.90;4.20;;;;;;;12.20;52.96;94986.16;5066108;28;20109;-77
2023/03/31 08:13:12;;;;;;;12.05;3.88;;;;;;;11.92;53.46;94940.00;5075905;28;20032;-77
2023/03/31 08:15:38;;;;;;;16.20;3.55;;;;;;;12.75;51.51;95053.66;5067885;28;20027;-77
2023/03/31 08:18:04;;;;;;;13.25;4.10;;;;;;;12.82;49.97;95038.13;5066190;28;20449;-78
2023/03/31 08:20:30;;;;;;;15.02;4.00;;;;;;;12.81;50.88;95054.38;5065812;28;20052;-78
2023/03/31 08:22:55;;;;;;;12.15;3.35;;;;;;;12.81;50.56;95041.88;5090825;28;20035;-78
2023/03/31 08:25:22;;;;;;;9.32;3.72;;;;;;;11.92;50.16;94934.69;5062461;28;20032;-78
2023/03/31 08:27:49;;;;;;;16.35;4.30;;;;;;;12.27;49.99;94970.63;5072243;28;20043;-78
2023/03/31 08:30:16;;;;;;;12.70;3.38;;;;;;;12.68;50.48;95062.00;5076048;28;20020;-78
2023/03/31 08:32:41;;;;;;;14.48;3.58;;;;;;;12.72;50.71;95049.72;5072709;28;20676;-78
2023/03/31 08:35:08;;;;;;;14.48;3.95;;;;;;;12.72;50.86;95047.06;5078010;28;20036;-78
2023/03/31 08:37:34;;;;;;;9.60;3.50;;;;;;;12.37;49.36;94997.81;5080128;28;20032;-78
2023/03/31 08:40:02;;;;;;;11.68;3.65;;;;;;;12.22;49.85;94958.16;5070296;28;20093;-78
2023/03/31 08:43:09;;;;;;;10.70;3.05;;;;;;;12.67;50.00;95038.34;5052032;28;20036;-80
2023/03/31 08:45:40;;;;;;;14.57;3.25;;;;;;;12.20;49.26;94994.91;5050633;28;20036;-81
2023/03/31 08:48:20;;;;;;;8.03;3.20;;;;;;;12.59;48.77;95029.16;5080039;28;20028;-79
2023/03/31 08:50:51;;;;;;;16.33;3.47;;;;;;;12.33;48.60;94972.13;5078789;28;22171;-80
2023/03/31 08:53:25;;;;;;;16.02;3.65;;;;;;;11.87;49.05;94910.84;5079569;28;20571;-78
2023/03/31 08:55:53;;;;;;;13.50;3.13;;;;;;;12.71;49.53;95037.50;5071116;28;20031;-82
2023/03/31 08:59:00;;;;;;;8.35;3.15;;;;;;;12.33;48.87;94951.63;5070605;28;20074;-79
2023/03/31 09:01:54;;;;;;;12.20;3.75;;;;;;;12.67;48.84;95004.56;5091848;27;20052;-82
2023/03/31 09:04:32;;;;;;;8.73;3.38;;;;;;;12.87;48.56;95005.31;5075510;28;20024;-80
2023/03/31 09:06:57;;;;;;;9.35;3.72;;;;;;;12.96;48.68;95015.03;5064398;28;20050;-79
2023/03/31 09:09:42;;;;;;;11.27;3.45;;;;;;;13.03;47.59;95007.44;5084582;28;20229;-80
2023/03/31 09:12:18;;;;;;;15.68;3.80;;;;;;;13.09;47.55;95021.44;5060299;28;20073;-80
2023/03/31 09:14:53;;;;;;;12.00;3.20;;;;;;;12.41;46.97;94904.19;5046550;28;20032;-80
2023/03/31 09:17:27;;;;;;;10.60;3.00;;;;;;;13.20;47.32;95004.22;5087798;28;20428;-80
2023/03/31 09:20:09;;;;;;;12.60;3.22;;;;;;;12.48;47.31;94838.09;5082912;28;20032;-80
2023/03/31 09:22:37;;;;;;;;;;;;;;;13.69;46.74;95002.78;5082764;28;20693;-79
2023/03/31 09:25:10;;;;;;;13.25;3.45;;;;;;;13.51;45.91;94951.97;5059945;28;19920;-79
2023/03/31 09:27:41;;;;;;;6.93;3.03;;;;;;;13.68;45.50;94964.69;5064442;28;20042;-80
2023/03/31 09:30:26;;;;;;;7.60;3.40;;;;;;;14.10;45.31;95026.75;5066066;28;20467;-80
2023/03/31 09:33:02;;;;;;;8.15;2.78;;;;;;;13.87;44.74;94986.69;5064977;28;20036;-80
2023/03/31 09:35:32;;;;;;;16.52;2.85;;;;;;;13.59;44.82;94910.50;5067802;28;20046;-78
2023/03/31 09:37:58;;;;;;;15.30;3.17;;;;;;;13.78;44.17;94910.41;5041711;28;20533;-80
2023/03/31 09:40:25;;;;;;;5.10;2.72;;;;;;;14.11;43.53;94948.34;5060202;28;20452;-78
2023/03/31 09:43:05;;;;;;;7.95;2.72;;;;;;;14.36;43.59;94994.97;5079674;28;20035;-77
2023/03/31 09:45:35;;;;;;;8.32;3.47;;;;;;;14.08;42.88;94948.94;5064372;28;20039;-78
2023/03/31 09:48:10;;;;;;;8.48;3.10;;;;;;;14.39;43.51;94991.75;5058071;28;20169;-77
2023/03/31 09:50:43;;;;;;;12.35;2.95;;;;;;;13.89;43.47;94933.84;5086118;28;20110;-78
2023/03/31 09:53:18;;;;;;;8.82;2.55;;;;;;;14.47;43.05;94985.69;5049589;28;20040;-78
2023/03/31 09:55:51;;;;;;;9.93;2.90;;;;;;;14.00;43.18;94905.09;5079549;28;20108;-78
2023/03/31 09:58:19;;;;;;;11.05;3.33;;;;;;;14.75;43.36;94976.47;5083380;28;20037;-80
2023/03/31 10:01:01;;;;;;;10.02;2.63;;;;;;;14.88;42.32;94980.94;5088539;28;20442;-77
2023/03/31 10:03:28;;;;;;;;;;;;;;;15.17;41.86;94983.19;5069172;28;20131;-78
2023/03/31 10:05:57;;;;;;;9.00;2.67;;;;;;;15.53;41.30;94945.63;5076732;28;20200;-78
2023/03/31 10:08:32;;;;;;;8.73;2.30;;;;;;;15.52;40.62;94952.03;5073877;28;20144;-78
2023/03/31 10:11:01;;;;;;;9.45;2.58;;;;;;;16.18;39.69;94961.63;5083446;28;21169;-77
2023/03/31 10:13:35;;;;;;;6.35;2.45;;;;;;;15.80;40.06;94940.03;5069560;28;20045;-78
2023/03/31 10:16:03;;;;;;;10.40;2.55;;;;;;;15.76;40.24;94955.13;5072713;28;20198;-78
2023/03/31 10:18:38;;;;;;;8.10;2.67;;;;;;;15.56;40.05;94955.72;5062414;28;20438;-78
2023/03/31 10:21:06;;;;;;;6.93;2.58;;;;;;;15.44;40.47;94966.94;5072420;28;20173;-80
2023/03/31 10:23:34;;;;;;;7.90;2.72;;;;;;;15.36;39.92;94870.72;5076936;28;20032;-80
2023/03/31 10:26:01;;;;;;;7.38;2.30;;;;;;;15.77;38.91;94873.81;5060981;28;20035;-80
2023/03/31 10:28:34;;;;;;;12.48;2.83;;;;;;;16.76;37.82;94944.34;5062328;28;20032;-86
2023/03/31 10:31:00;;;;;;;13.02;3.22;;;;;;;16.56;37.54;94888.75;5053027;28;20484;-81
2023/03/31 10:33:30;;;;;;;8.75;2.90;;;;;;;16.62;38.04;94914.28;5080474;28;20135;-79
2023/03/31 10:36:16;;;;;;;9.50;2.30;;;;;;;16.92;38.11;94932.03;5081374;28;20032;-80
2023/03/31 10:38:45;;;;;;;10.02;2.53;;;;;;;16.68;37.92;94921.06;5072728;28;20063;-80
2023/03/31 10:41:11;;;;;;;14.98;4.20;;;;;;;16.56;38.08;94902.91;5080438;28;20047;-80
2023/03/31 10:43:39;;;;;;;11.52;2.47;;;;;;;16.67;38.73;94924.81;5079461;28;20031;-79
2023/03/31 10:46:05;;;;;;;10.80;3.38;;;;;;;16.11;38.80;94890.97;5088209;28;20127;-78
2023/03/31 10:48:32;;;;;;;8.55;2.58;;;;;;;16.37;39.85;94925.78;5071664;28;20107;-79
2023/03/31 10:51:03;;;;;;;7.50;2.40;;;;;;;15.99;41.33;94933.63;5064618;28;20031;-78
2023/03/31 10:53:29;;;;;;;8.80;2.43;;;;;;;15.47;41.57;94884.59;5091200;28;20510;-79
2023/03/31 10:56:06;;;;;;;10.82;3.00;;;;;;;16.01;41.55;94910.81;5071496;28;20282;-78
2023/03/31 10:58:51;;;;;;;12.65;3.00;;;;;;;15.96;41.57;94912.84;5063344;28;20255;-80
2023/03/31 11:01:42;;;;;;;6.82;2.58;;;;;;;15.96;41.11;94920.88;5076768;28;20032;-79
2023/03/31 11:04:27;;;;;;;10.27;3.20;;;;;;;15.93;41.76;94914.28;5071794;28;20112;-79
2023/03/31 11:07:02;;;;;;;7.32;2.70;;;;;;;15.90;41.25;94912.22;5046205;28;20617;-79
2023/03/31 11:09:42;;;;;;;15.70;2.67;;;;;;;15.87;41.40;94904.81;5073919;28;20056;-78
2023/03/31 11:12:35;;;;;;;11.02;2.80;;;;;;;15.65;41.63;94921.75;5079934;28;20035;-80
2023/03/31 11:15:35;;;;;;;11.60;2.80;;;;;;;15.61;41.57;94906.66;5074073;28;20061;-79
2023/03/31 11:18:41;;;;;;;14.30;3.17;;;;;;;15.53;41.49;94896.69;5067765;28;20028;-80
2023/03/31 11:21:46;;;;;;;13.20;2.42;;;;;;;15.67;41.58;94884.03;5094822;27;20108;-80
2023/03/31 11:24:21;;;;;;;12.55;3.08;;;;;;;15.85;41.29;94887.53;5102630;27;20498;-78
2023/03/31 11:26:56;;;;;;;11.63;3.08;;;;;;;16.02;40.60;94885.63;5083112;27;20039;-79
2023/03/31 11:29:34;;;;;;;9.73;2.92;;;;;;;16.00;40.72;94860.31;5088099;27;20886;-79
2023/03/31 11:32:35;;;;;;;8.13;2.70;;;;;;;16.01;40.90;94870.69;5088774;28;20031;-78
2023/03/31 11:35:34;;;;;;;12.10;3.28;;;;;;;16.14;40.60;94861.72;5098400;27;20040;-78
2023/03/31 11:38:21;;;;;;;8.90;2.85;;;;;;;16.24;39.69;94870.53;5088481;27;20043;-78
2023/03/31 11:40:55;;;;;;;4.72;2.17;;;;;;;16.33;40.00;94858.69;5104076;27;20728;-79
2023/03/31 11:43:24;;;;;;;9.60;2.22;;;;;;;16.52;39.79;94853.81;5108303;27;20499;-79
2023/03/31 11:46:00;;;;;;;10.77;2.80;;;;;;;16.13;39.80;94812.00;5089917;27;20459;-78
2023/03/31 11:48:46;;;;;;;11.38;3.10;;;;;;;16.79;39.70;94846.50;5104765;27;20055;-78